createdAt,value
2018-07-03T00:01:50.029Z,58.56
2018-07-03T00:04:18.525Z,58.81
2018-07-03T00:06:47.181Z,59.45
2018-07-03T00:09:15.859Z,59.35
2018-07-03T00:11:44.339Z,59.68
2018-07-03T00:14:12.841Z,59.98
2018-07-03T00:16:46.752Z,61.07
2018-07-03T00:19:15.229Z,60.55
2018-07-03T00:21:43.769Z,60.80
2018-07-03T00:24:12.276Z,61.31
2018-07-03T00:26:40.926Z,61.77
2018-07-03T00:29:09.457Z,61.58
2018-07-03T00:31:37.982Z,61.67
2018-07-03T00:34:07.026Z,61.81
2018-07-03T00:36:35.568Z,62.22
2018-07-03T00:39:05.899Z,62.14
2018-07-03T00:41:34.421Z,62.55
2018-07-03T00:44:03.067Z,62.82
2018-07-03T00:46:31.556Z,63.21
2018-07-03T00:49:00.027Z,63.76
2018-07-03T00:51:29.240Z,64.48
2018-07-03T00:53:57.729Z,65.02
2018-07-03T00:56:26.201Z,65.22
2018-07-03T00:58:55.161Z,65.80
2018-07-03T01:01:23.633Z,66.71
2018-07-03T01:03:52.093Z,66.95
2018-07-03T01:06:20.682Z,67.12
2018-07-03T01:08:49.147Z,67.93
2018-07-03T01:11:17.673Z,68.26
2018-07-03T01:13:46.168Z,68.71
2018-07-03T01:16:14.655Z,69.08
2018-07-03T01:18:43.135Z,69.46
2018-07-03T01:21:11.613Z,69.79
2018-07-03T01:23:40.188Z,70.53
2018-07-03T01:26:08.693Z,70.76
2018-07-03T01:28:37.231Z,71.07
2018-07-03T01:31:05.725Z,71.28
2018-07-03T01:33:34.205Z,71.80
2018-07-03T01:36:02.783Z,71.96
2018-07-03T01:38:31.250Z,72.73
2018-07-03T01:40:59.886Z,73.58
2018-07-03T01:43:28.442Z,73.91
2018-07-03T01:45:56.926Z,73.60
2018-07-03T01:48:25.425Z,74.14
2018-07-03T01:50:53.893Z,74.20
2018-07-03T01:53:22.393Z,74.81
2018-07-03T01:55:50.890Z,74.93
2018-07-03T01:58:19.399Z,75.26
2018-07-03T02:00:47.908Z,75.96
2018-07-03T02:03:16.485Z,76.38
2018-07-03T02:05:44.958Z,76.11
2018-07-03T02:08:13.420Z,76.81
2018-07-03T02:10:41.922Z,77.04
2018-07-03T02:13:10.381Z,77.33
2018-07-03T02:15:38.854Z,78.13
2018-07-03T02:18:07.366Z,79.20
2018-07-03T02:20:35.853Z,78.36
2018-07-03T02:23:04.620Z,78.16
2018-07-03T02:25:33.093Z,78.83
2018-07-03T02:28:01.609Z,79.28
2018-07-03T02:30:30.103Z,79.97
2018-07-03T02:32:58.766Z,79.86
2018-07-03T02:35:27.262Z,80.31
2018-07-03T02:37:55.961Z,80.07
2018-07-03T02:40:24.509Z,80.25
2018-07-03T02:42:52.987Z,80.36
2018-07-03T02:45:21.467Z,80.65
2018-07-03T02:47:49.962Z,80.87
2018-07-03T02:50:18.493Z,81.17
2018-07-03T02:52:46.957Z,81.23
2018-07-03T02:55:15.523Z,81.33
2018-07-03T02:57:43.997Z,82.03
2018-07-03T03:00:12.637Z,82.12
2018-07-03T03:02:41.229Z,82.28
2018-07-03T03:05:09.726Z,82.59
2018-07-03T03:07:38.233Z,82.97
2018-07-03T03:10:06.799Z,83.37
2018-07-03T03:12:35.650Z,83.67
2018-07-03T03:15:04.284Z,83.89
2018-07-03T03:17:32.741Z,83.85
2018-07-03T03:20:01.237Z,84.39
2018-07-03T03:22:29.770Z,84.48
2018-07-03T03:24:58.519Z,84.52
2018-07-03T03:27:27.009Z,84.72
2018-07-03T03:29:55.557Z,84.68
2018-07-03T03:32:24.128Z,85.18
2018-07-03T03:34:52.623Z,85.32
2018-07-03T03:37:21.606Z,85.79
2018-07-03T03:39:50.139Z,86.30
2018-07-03T03:42:18.597Z,86.56
2018-07-03T03:44:47.285Z,86.72
2018-07-03T03:47:15.772Z,87.21
2018-07-03T03:49:44.457Z,87.52
2018-07-03T03:52:13.203Z,87.70
2018-07-03T03:54:41.680Z,87.72
2018-07-03T03:57:10.154Z,88.08
2018-07-03T03:59:38.776Z,88.05
2018-07-03T04:02:07.277Z,88.39
2018-07-03T04:04:35.758Z,87.74
2018-07-03T04:07:04.297Z,87.89
2018-07-03T04:09:32.799Z,88.00
2018-07-03T04:12:01.289Z,87.55
2018-07-03T04:14:29.773Z,87.69
2018-07-03T04:16:58.240Z,87.56
2018-07-03T04:19:26.951Z,87.18
2018-07-03T04:21:55.636Z,86.94
2018-07-03T04:24:24.133Z,87.04
2018-07-03T04:26:52.671Z,86.85
2018-07-03T04:29:21.158Z,86.53
2018-07-03T04:31:49.677Z,86.28
2018-07-03T04:34:18.159Z,86.15
2018-07-03T04:36:46.674Z,87.13
2018-07-03T04:39:15.182Z,86.94
2018-07-03T04:41:43.661Z,86.55
2018-07-03T04:44:12.165Z,86.16
2018-07-03T04:46:40.698Z,85.99
2018-07-03T04:49:09.224Z,85.62
2018-07-03T04:51:37.701Z,85.52
2018-07-03T04:54:06.233Z,85.04
2018-07-03T04:56:35.049Z,86.27
2018-07-03T04:59:03.535Z,86.00
2018-07-03T05:01:32.019Z,85.82
2018-07-03T05:04:00.593Z,86.29
2018-07-03T05:06:29.125Z,86.44
2018-07-03T05:08:57.661Z,85.76
2018-07-03T05:11:26.173Z,84.34
2018-07-03T05:14:01.506Z,84.90
2018-07-03T05:16:29.992Z,84.02
2018-07-03T05:18:58.484Z,81.86
2018-07-03T05:21:26.980Z,82.06
2018-07-03T05:23:55.483Z,82.29
2018-07-03T05:26:23.986Z,81.92
2018-07-03T05:28:52.527Z,81.48
2018-07-03T05:31:21.025Z,81.32
2018-07-03T05:33:49.544Z,79.03
2018-07-03T05:36:18.218Z,77.37
2018-07-03T05:38:46.750Z,78.56
2018-07-03T05:41:15.253Z,79.82
2018-07-03T05:43:43.782Z,79.44
2018-07-03T05:46:12.257Z,79.52
2018-07-03T05:48:40.718Z,80.81
2018-07-03T05:51:09.355Z,80.38
2018-07-03T05:53:37.835Z,81.55
2018-07-03T05:56:06.386Z,82.36
2018-07-03T05:58:34.965Z,81.38
2018-07-03T06:01:03.447Z,79.17
2018-07-03T06:03:31.928Z,73.74
2018-07-03T06:06:00.934Z,70.96
2018-07-03T06:08:29.405Z,72.41
2018-07-03T06:10:57.880Z,71.36
2018-07-03T06:13:26.436Z,70.35
2018-07-03T06:15:54.913Z,71.01
2018-07-03T06:18:23.387Z,70.01
2018-07-03T06:20:51.893Z,68.98
2018-07-03T06:23:20.381Z,66.54
2018-07-03T06:25:48.915Z,63.47
2018-07-03T06:28:17.662Z,62.24
2018-07-03T06:30:46.186Z,62.88
2018-07-03T06:33:14.699Z,62.53
2018-07-03T06:35:43.177Z,63.37
2018-07-03T06:38:11.820Z,61.23
2018-07-03T06:40:40.332Z,59.35
2018-07-03T06:43:08.910Z,57.64
2018-07-03T06:45:37.403Z,58.58
2018-07-03T06:48:05.959Z,58.38
2018-07-03T06:50:34.629Z,59.26
2018-07-03T06:53:03.093Z,61.21
2018-07-03T06:55:31.598Z,60.59
2018-07-03T06:58:00.138Z,58.69
2018-07-03T07:00:29.054Z,57.58
2018-07-03T07:02:57.537Z,57.81
2018-07-03T07:05:26.006Z,57.11
2018-07-03T07:07:54.740Z,56.40
2018-07-03T07:10:23.212Z,55.52
2018-07-03T07:12:51.718Z,55.72
2018-07-03T07:15:20.205Z,55.52
2018-07-03T07:17:49.589Z,57.06
2018-07-03T07:20:18.093Z,57.80
2018-07-03T07:22:46.662Z,58.30
2018-07-03T07:25:15.144Z,59.78
2018-07-03T07:27:43.696Z,60.23
2018-07-03T07:30:12.210Z,60.26
2018-07-03T07:32:40.723Z,59.93
2018-07-03T07:35:09.235Z,59.25
2018-07-03T07:37:37.762Z,58.45
2018-07-03T07:40:06.814Z,57.97
2018-07-03T07:42:35.540Z,57.69
2018-07-03T07:45:04.062Z,57.20
2018-07-03T07:47:32.603Z,57.26
2018-07-03T07:50:01.131Z,56.91
2018-07-03T07:52:29.654Z,56.41
2018-07-03T07:54:58.225Z,56.24
2018-07-03T07:57:26.697Z,56.53
2018-07-03T07:59:55.200Z,55.21
2018-07-03T08:02:23.665Z,55.99
2018-07-03T08:04:52.178Z,55.01
2018-07-03T08:07:20.672Z,54.07
2018-07-03T08:09:49.206Z,53.68
2018-07-03T08:12:17.704Z,54.58
2018-07-03T08:14:46.211Z,53.98
2018-07-03T08:17:14.758Z,54.32
2018-07-03T08:19:43.371Z,55.14
2018-07-03T08:22:11.870Z,54.54
2018-07-03T08:24:40.358Z,53.37
2018-07-03T08:27:08.890Z,53.38
2018-07-03T08:29:37.413Z,52.73
2018-07-03T08:32:06.226Z,53.47
2018-07-03T08:34:35.094Z,51.70
2018-07-03T08:37:03.801Z,51.56
2018-07-03T08:39:32.308Z,50.05
2018-07-03T08:42:00.789Z,48.24
2018-07-03T08:44:29.324Z,49.58
2018-07-03T08:46:57.818Z,49.71
2018-07-03T08:49:26.302Z,48.50
2018-07-03T08:51:54.832Z,49.07
2018-07-03T08:54:23.373Z,48.55
2018-07-03T08:56:51.866Z,48.35
2018-07-03T08:59:20.325Z,48.17
2018-07-03T09:01:48.907Z,48.84
2018-07-03T09:04:17.411Z,47.64
2018-07-03T09:06:45.876Z,47.10
2018-07-03T09:09:14.434Z,47.08
2018-07-03T09:11:42.920Z,46.23
2018-07-03T09:14:11.453Z,47.84
2018-07-03T09:16:40.128Z,47.64
2018-07-03T09:19:08.953Z,47.29
2018-07-03T09:21:37.549Z,47.39
2018-07-03T09:24:06.097Z,46.61
2018-07-03T09:26:34.889Z,47.79
2018-07-03T09:29:03.358Z,45.46
2018-07-03T09:31:31.837Z,44.67
2018-07-03T09:34:00.320Z,44.71
2018-07-03T09:36:28.819Z,43.96
2018-07-03T09:38:57.437Z,43.47
2018-07-03T09:41:25.963Z,42.30
2018-07-03T09:43:54.437Z,42.56
2018-07-03T09:46:23.069Z,42.84
2018-07-03T09:48:51.586Z,43.13
2018-07-03T09:51:20.122Z,42.22
2018-07-03T09:53:48.596Z,41.93
2018-07-03T09:56:17.226Z,42.46
2018-07-03T09:58:45.722Z,42.31
2018-07-03T10:01:19.650Z,41.49
2018-07-03T10:03:48.157Z,42.10
2018-07-03T10:06:16.778Z,41.81
2018-07-03T10:08:45.493Z,42.68
2018-07-03T10:11:14.401Z,41.39
2018-07-03T10:13:43.333Z,41.16
2018-07-03T10:16:11.815Z,40.66
2018-07-03T10:18:40.307Z,39.76
2018-07-03T10:21:08.875Z,40.46
2018-07-03T10:23:37.421Z,42.19
2018-07-03T10:26:05.953Z,40.57
2018-07-03T10:28:34.458Z,40.44
2018-07-03T10:31:03.316Z,40.80
2018-07-03T10:33:31.842Z,40.80
2018-07-03T10:36:00.319Z,39.99
2018-07-03T10:38:29.309Z,40.21
2018-07-03T10:40:57.833Z,40.57
2018-07-03T10:43:26.314Z,41.05
2018-07-03T10:45:54.865Z,40.13
2018-07-03T10:48:23.369Z,39.49
2018-07-03T10:50:51.829Z,39.85
2018-07-03T10:53:20.433Z,39.71
2018-07-03T10:55:48.930Z,39.54
2018-07-03T10:58:17.442Z,40.51
2018-07-03T11:00:46.382Z,38.98
2018-07-03T11:03:15.098Z,39.58
2018-07-03T11:05:43.628Z,39.41
2018-07-03T11:08:12.398Z,39.08
2018-07-03T11:10:40.912Z,38.71
2018-07-03T11:13:09.413Z,38.48
2018-07-03T11:15:38.081Z,37.88
2018-07-03T11:18:06.612Z,38.10
2018-07-03T11:20:35.124Z,37.62
2018-07-03T11:23:03.679Z,36.82
2018-07-03T11:25:32.529Z,37.87
2018-07-03T11:28:01.039Z,36.35
2018-07-03T11:30:29.981Z,36.41
2018-07-03T11:32:58.484Z,36.61
2018-07-03T11:35:26.985Z,36.44
2018-07-03T11:37:55.607Z,35.95
2018-07-03T11:40:24.109Z,36.59
2018-07-03T11:42:52.579Z,35.41
2018-07-03T11:45:21.119Z,36.62
2018-07-03T11:47:49.616Z,36.61
2018-07-03T11:50:18.128Z,36.48
2018-07-03T11:52:46.638Z,36.21
2018-07-03T11:55:15.181Z,36.66
2018-07-03T11:57:43.721Z,35.58
2018-07-03T12:00:12.368Z,36.27
2018-07-03T12:02:40.905Z,36.48
2018-07-03T12:05:09.454Z,35.82
2018-07-03T12:07:38.119Z,36.85
2018-07-03T12:10:06.722Z,36.17
2018-07-03T12:12:35.258Z,37.82
2018-07-03T12:15:03.846Z,36.53
2018-07-03T12:17:32.345Z,36.72
2018-07-03T12:20:00.867Z,36.35
2018-07-03T12:22:29.387Z,36.16
2018-07-03T12:24:57.927Z,37.08
2018-07-03T12:27:26.458Z,38.34
2018-07-03T12:29:54.959Z,37.46
2018-07-03T12:32:23.441Z,36.20
2018-07-03T12:34:51.954Z,36.17
2018-07-03T12:37:20.483Z,36.29
2018-07-03T12:39:49.097Z,35.96
2018-07-03T12:42:17.593Z,35.04
2018-07-03T12:44:46.097Z,35.03
2018-07-03T12:47:14.610Z,34.61
2018-07-03T12:49:43.100Z,34.72
2018-07-03T12:52:11.627Z,34.17
2018-07-03T12:54:40.095Z,35.25
2018-07-03T12:57:09.035Z,35.65
2018-07-03T12:59:37.533Z,34.86
2018-07-03T13:02:06.133Z,34.45
2018-07-03T13:04:34.632Z,34.97
2018-07-03T13:07:03.202Z,35.32
2018-07-03T13:09:31.822Z,36.12
2018-07-03T13:12:00.325Z,35.20
2018-07-03T13:14:28.858Z,34.90
2018-07-03T13:16:57.522Z,34.64
2018-07-03T13:19:26.130Z,34.32
2018-07-03T13:21:55.137Z,35.06
2018-07-03T13:24:23.645Z,34.99
2018-07-03T13:26:52.712Z,34.47
2018-07-03T13:29:21.242Z,35.21
2018-07-03T13:31:49.755Z,35.69
2018-07-03T13:34:18.246Z,34.06
2018-07-03T13:36:46.737Z,34.19
2018-07-03T13:39:15.276Z,36.92
2018-07-03T13:41:43.903Z,34.64
2018-07-03T13:44:12.374Z,34.84
2018-07-03T13:46:40.921Z,34.35
2018-07-03T13:49:09.415Z,33.90
2018-07-03T13:51:37.937Z,34.69
2018-07-03T13:54:06.442Z,33.98
2018-07-03T13:56:34.980Z,34.28
2018-07-03T13:59:03.521Z,34.85
2018-07-03T14:01:32.062Z,34.68
2018-07-03T14:04:00.581Z,35.13
2018-07-03T14:06:29.065Z,35.26
2018-07-03T14:08:57.598Z,34.16
2018-07-03T14:11:26.210Z,34.89
2018-07-03T14:13:54.765Z,34.72
2018-07-03T14:16:23.281Z,34.90
2018-07-03T14:18:51.850Z,34.60
2018-07-03T14:21:22.648Z,35.25
2018-07-03T14:23:51.302Z,34.10
2018-07-03T14:26:19.787Z,34.12
2018-07-03T14:28:48.261Z,35.00
2018-07-03T14:31:16.766Z,34.69
2018-07-03T14:33:45.247Z,34.94
2018-07-03T14:36:13.807Z,34.89
2018-07-03T14:38:42.397Z,34.69
2018-07-03T14:41:11.353Z,34.50
2018-07-03T14:43:40.119Z,34.94
2018-07-03T14:46:08.906Z,34.39
2018-07-03T14:48:37.558Z,35.01
2018-07-03T14:51:06.093Z,35.42
2018-07-03T14:53:34.688Z,35.39
2018-07-03T14:56:03.218Z,35.86
2018-07-03T14:58:31.897Z,35.00
2018-07-03T15:01:00.533Z,35.16
2018-07-03T15:03:29.060Z,35.06
2018-07-03T15:05:57.594Z,35.25
2018-07-03T15:08:26.386Z,34.34
2018-07-03T15:10:54.871Z,34.76
2018-07-03T15:13:23.535Z,35.39
2018-07-03T15:15:52.045Z,34.72
2018-07-03T15:18:20.566Z,34.93
2018-07-03T15:20:49.225Z,35.17
2018-07-03T15:23:17.719Z,36.00
2018-07-03T15:25:46.273Z,35.58
2018-07-03T15:28:14.760Z,35.45
2018-07-03T15:30:43.365Z,35.42
2018-07-03T15:33:11.824Z,34.79
2018-07-03T15:35:40.335Z,35.67
2018-07-03T15:38:08.838Z,35.98
2018-07-03T15:40:37.430Z,35.83
2018-07-03T15:43:06.136Z,34.87
2018-07-03T15:45:34.798Z,35.01
2018-07-03T15:48:03.290Z,34.76
2018-07-03T15:50:32.017Z,34.99
2018-07-03T15:53:00.516Z,34.98
2018-07-03T15:55:28.985Z,35.03
2018-07-03T15:57:57.645Z,36.01
2018-07-03T16:00:26.160Z,35.47
2018-07-03T16:03:05.870Z,35.95
2018-07-03T16:05:45.669Z,35.86
2018-07-03T16:08:29.222Z,36.55
2018-07-03T16:10:58.065Z,36.71
2018-07-03T16:13:26.614Z,36.64
2018-07-03T16:15:55.141Z,36.80
2018-07-03T16:18:23.693Z,36.62
2018-07-03T16:20:52.218Z,36.79
2018-07-03T16:23:20.734Z,37.15
2018-07-03T16:25:50.321Z,37.42
2018-07-03T16:28:18.844Z,38.11
2018-07-03T16:30:47.333Z,37.28
2018-07-03T16:33:16.798Z,38.40
2018-07-03T16:35:45.443Z,38.40
2018-07-03T16:38:14.089Z,39.08
2018-07-03T16:40:42.569Z,39.10
2018-07-03T16:43:11.201Z,38.60
2018-07-03T16:45:39.785Z,39.26
2018-07-03T16:48:08.566Z,39.61
2018-07-03T16:50:37.425Z,38.97
2018-07-03T16:53:06.137Z,39.46
2018-07-03T16:55:34.888Z,39.80
2018-07-03T16:58:05.533Z,39.76
2018-07-03T17:00:34.182Z,40.15
2018-07-03T17:03:02.693Z,40.12
2018-07-03T17:05:31.244Z,39.53
2018-07-03T17:07:59.737Z,39.99
2018-07-03T17:10:28.247Z,40.03
2018-07-03T17:12:56.749Z,40.74
2018-07-03T17:15:25.243Z,40.81
2018-07-03T17:17:53.742Z,41.08
2018-07-03T17:20:22.240Z,41.68
2018-07-03T17:22:52.689Z,41.73
2018-07-03T17:25:21.437Z,42.16
2018-07-03T17:27:49.973Z,42.73
2018-07-03T17:30:18.882Z,42.54
2018-07-03T17:32:47.394Z,42.59
2018-07-03T17:35:15.861Z,42.56
2018-07-03T17:37:44.783Z,42.80
2018-07-03T17:40:24.794Z,43.17
2018-07-03T17:43:30.820Z,43.64
2018-07-03T17:46:03.911Z,44.04
2018-07-03T17:48:32.401Z,43.94
2018-07-03T17:51:00.952Z,43.87
2018-07-03T17:53:29.469Z,43.72
2018-07-03T17:55:58.744Z,43.17
2018-07-03T17:58:27.268Z,42.54
2018-07-03T18:00:55.777Z,42.65
2018-07-03T18:03:24.318Z,42.75
2018-07-03T18:05:52.826Z,41.55
2018-07-03T18:08:21.396Z,41.32
2018-07-03T18:10:49.942Z,42.41
2018-07-03T18:13:18.433Z,43.29
2018-07-03T18:15:46.915Z,43.17
2018-07-03T18:18:15.422Z,41.77
2018-07-03T18:20:43.961Z,40.77
2018-07-03T18:23:12.596Z,42.54
2018-07-03T18:25:41.144Z,42.90
2018-07-03T18:28:09.647Z,45.57
2018-07-03T18:30:38.117Z,47.16
2018-07-03T18:33:06.891Z,48.66
2018-07-03T18:35:35.405Z,49.34
2018-07-03T18:38:03.909Z,49.47
2018-07-03T18:40:32.400Z,50.68
2018-07-03T18:43:01.010Z,50.53
2018-07-03T18:45:29.601Z,51.03
2018-07-03T18:47:58.856Z,51.25
2018-07-03T18:50:27.368Z,51.79
2018-07-03T18:52:55.863Z,51.70
2018-07-03T18:55:24.349Z,51.86
2018-07-03T18:57:52.925Z,52.12
2018-07-03T19:00:21.527Z,53.22
2018-07-03T19:02:50.046Z,53.16
2018-07-03T19:05:18.601Z,52.35
2018-07-03T19:07:47.518Z,50.97
2018-07-03T19:10:16.118Z,50.95
2018-07-03T19:12:44.593Z,51.24
2018-07-03T19:15:13.183Z,52.72
2018-07-03T19:17:41.757Z,53.21
2018-07-03T19:20:10.356Z,53.18
2018-07-03T19:22:38.894Z,52.09
2018-07-03T19:25:07.411Z,52.70
2018-07-03T19:27:35.950Z,52.99
2018-07-03T19:30:04.970Z,52.87
2018-07-03T19:32:33.462Z,52.76
2018-07-03T19:35:02.394Z,54.29
2018-07-03T19:37:30.854Z,54.76
2018-07-03T19:39:59.374Z,56.23
2018-07-03T19:42:28.106Z,57.80
2018-07-03T19:44:57.009Z,58.22
2018-07-03T19:47:25.557Z,59.28
2018-07-03T19:49:54.133Z,59.59
2018-07-03T19:52:22.686Z,59.98
2018-07-03T19:54:51.241Z,60.70
2018-07-03T19:57:20.197Z,61.10
2018-07-03T19:59:48.774Z,60.99
2018-07-03T20:02:17.250Z,61.34
2018-07-03T20:04:46.416Z,61.99
2018-07-03T20:07:14.986Z,61.90
2018-07-03T20:09:43.505Z,61.43
2018-07-03T20:12:12.202Z,61.90
2018-07-03T20:14:40.712Z,62.21
2018-07-03T20:17:09.515Z,62.16
2018-07-03T20:19:38.049Z,62.69
2018-07-03T20:22:06.603Z,62.66
2018-07-03T20:24:35.324Z,62.49
2018-07-03T20:27:03.857Z,63.33
2018-07-03T20:29:32.457Z,63.50
2018-07-03T20:32:00.934Z,63.74
2018-07-03T20:34:29.418Z,63.96
2018-07-03T20:36:58.011Z,64.47
2018-07-03T20:39:26.499Z,64.54
2018-07-03T20:41:55.489Z,64.77
2018-07-03T20:44:24.015Z,64.88
2018-07-03T20:46:52.685Z,65.01
2018-07-03T20:49:21.573Z,65.11
2018-07-03T20:51:50.033Z,65.02
2018-07-03T20:54:18.520Z,65.46
2018-07-03T20:56:47.065Z,65.42
2018-07-03T20:59:15.554Z,65.41
2018-07-03T21:01:44.057Z,65.65
2018-07-03T21:04:12.746Z,65.74
2018-07-03T21:06:41.241Z,66.82
2018-07-03T21:09:10.504Z,66.60
2018-07-03T21:11:38.989Z,67.62
2018-07-03T21:14:07.641Z,68.46
2018-07-03T21:16:36.119Z,67.76
2018-07-03T21:19:04.681Z,68.26
2018-07-03T21:21:33.150Z,68.52
2018-07-03T21:24:01.663Z,68.76
2018-07-03T21:26:30.310Z,68.98
2018-07-03T21:28:58.842Z,69.52
2018-07-03T21:31:27.388Z,69.93
2018-07-03T21:33:55.933Z,69.76
2018-07-03T21:36:24.405Z,70.60
2018-07-03T21:38:52.903Z,70.77
2018-07-03T21:41:21.421Z,71.17
2018-07-03T21:43:49.880Z,71.15
2018-07-03T21:46:18.337Z,71.83
2018-07-03T21:48:46.847Z,72.22
2018-07-03T21:51:15.334Z,72.55
2018-07-03T21:53:43.937Z,73.52
2018-07-03T21:56:12.439Z,73.17
2018-07-03T21:58:40.979Z,73.56
2018-07-03T22:01:09.681Z,73.90
2018-07-03T22:03:38.170Z,74.37
2018-07-03T22:06:06.732Z,74.77
2018-07-03T22:08:35.274Z,75.04
2018-07-03T22:11:03.736Z,75.06
2018-07-03T22:13:32.221Z,75.36
2018-07-03T22:16:00.710Z,75.60
2018-07-03T22:18:29.299Z,75.83
2018-07-03T22:20:57.912Z,76.58
2018-07-03T22:23:26.369Z,76.71
2018-07-03T22:25:54.910Z,76.65
2018-07-03T22:28:23.395Z,77.43
2018-07-03T22:30:51.853Z,77.42
2018-07-03T22:33:20.326Z,77.32
2018-07-03T22:35:48.780Z,77.97
2018-07-03T22:38:17.283Z,77.93
2018-07-03T22:40:45.774Z,78.30
2018-07-03T22:43:14.273Z,78.14
2018-07-03T22:45:42.831Z,78.38
2018-07-03T22:48:11.586Z,79.08
2018-07-03T22:50:40.188Z,79.15
2018-07-03T22:53:08.826Z,79.12
2018-07-03T22:55:37.330Z,79.31
2018-07-03T22:58:06.029Z,79.37
2018-07-03T23:00:34.522Z,79.66
2018-07-03T23:03:03.019Z,79.43
2018-07-03T23:05:31.617Z,79.70
2018-07-03T23:08:00.113Z,79.53
2018-07-03T23:10:28.710Z,79.63
2018-07-03T23:12:57.369Z,80.02
2018-07-03T23:15:25.838Z,79.95
2018-07-03T23:17:54.285Z,80.11
2018-07-03T23:20:22.953Z,80.21
2018-07-03T23:22:51.445Z,80.15
2018-07-03T23:25:19.906Z,79.99
2018-07-03T23:27:48.470Z,80.02
2018-07-03T23:30:16.974Z,80.18
2018-07-03T23:32:45.513Z,80.70
2018-07-03T23:35:14.361Z,80.58
2018-07-03T23:37:43.049Z,80.95
2018-07-03T23:40:11.705Z,80.59
2018-07-03T23:42:40.316Z,80.58
2018-07-03T23:45:08.813Z,80.83
2018-07-03T23:47:48.574Z,80.87
2018-07-03T23:50:28.316Z,81.13
2018-07-03T23:53:08.240Z,81.24
2018-07-03T23:55:47.968Z,81.36
2018-07-03T23:58:27.696Z,81.86
